createdAt,value
2023-05-03T00:01:39.794Z,100.00
2023-05-03T00:04:09.722Z,100.00
2023-05-03T00:06:41.396Z,100.00
2023-05-03T00:09:11.779Z,100.00
2023-05-03T00:11:41.336Z,100.00
2023-05-03T00:14:10.284Z,100.00
2023-05-03T00:16:39.671Z,100.00
2023-05-03T00:19:17.690Z,100.00
2023-05-03T00:21:55.990Z,100.00
2023-05-03T00:24:26.855Z,100.00
2023-05-03T00:26:56.774Z,100.00
2023-05-03T00:29:26.439Z,100.00
2023-05-03T00:31:55.882Z,100.00
2023-05-03T00:34:26.085Z,100.00
2023-05-03T00:36:58.004Z,100.00
2023-05-03T00:39:30.560Z,100.00
2023-05-03T00:42:02.452Z,100.00
2023-05-03T00:44:32.738Z,100.00
2023-05-03T00:47:03.598Z,100.00
2023-05-03T00:49:34.437Z,100.00
2023-05-03T00:52:05.436Z,100.00
2023-05-03T00:54:36.059Z,100.00
2023-05-03T00:57:07.881Z,100.00
2023-05-03T00:59:37.323Z,100.00
2023-05-03T01:02:06.584Z,100.00
2023-05-03T01:04:37.840Z,100.00
2023-05-03T01:07:24.601Z,100.00
2023-05-03T01:10:06.760Z,100.00
2023-05-03T01:12:55.636Z,100.00
2023-05-03T01:15:45.439Z,100.00
2023-05-03T01:18:21.731Z,100.00
2023-05-03T01:20:54.619Z,100.00
2023-05-03T01:23:41.938Z,100.00
2023-05-03T01:26:22.696Z,100.00
2023-05-03T01:28:52.665Z,100.00
2023-05-03T01:31:30.548Z,100.00
2023-05-03T01:34:23.696Z,100.00
2023-05-03T01:36:58.696Z,100.00
2023-05-03T01:39:36.305Z,100.00
2023-05-03T01:42:07.256Z,100.00
2023-05-03T01:44:38.483Z,100.00
2023-05-03T01:47:06.979Z,100.00
2023-05-03T01:49:37.386Z,100.00
2023-05-03T01:52:06.977Z,100.00
2023-05-03T01:54:35.678Z,100.00
2023-05-03T01:57:06.861Z,100.00
2023-05-03T01:59:36.562Z,100.00
2023-05-03T02:02:05.000Z,100.00
2023-05-03T02:04:34.122Z,100.00
2023-05-03T02:07:05.230Z,100.00
2023-05-03T02:09:33.740Z,100.00
2023-05-03T02:12:02.722Z,100.00
2023-05-03T02:14:35.603Z,100.00
2023-05-03T02:17:04.937Z,100.00
2023-05-03T02:19:33.451Z,100.00
2023-05-03T02:22:02.359Z,100.00
2023-05-03T02:24:32.380Z,100.00
2023-05-03T02:27:00.808Z,100.00
2023-05-03T02:29:29.815Z,100.00
2023-05-03T02:32:00.158Z,100.00
2023-05-03T02:34:29.215Z,100.00
2023-05-03T02:36:57.802Z,100.00
2023-05-03T02:39:26.851Z,100.00
2023-05-03T02:41:56.280Z,100.00
2023-05-03T02:44:24.774Z,100.00
2023-05-03T02:46:55.359Z,100.00
2023-05-03T02:49:26.276Z,100.00
2023-05-03T02:51:56.783Z,100.00
2023-05-03T02:54:25.442Z,100.00
2023-05-03T02:56:54.506Z,100.00
2023-05-03T02:59:23.544Z,100.00
2023-05-03T03:01:52.472Z,100.00
2023-05-03T03:04:21.497Z,100.00
2023-05-03T03:06:54.219Z,100.00
2023-05-03T03:09:22.654Z,100.00
2023-05-03T03:11:54.052Z,100.00
2023-05-03T03:14:22.517Z,100.00
2023-05-03T03:16:53.985Z,100.00
2023-05-03T03:19:23.093Z,100.00
2023-05-03T03:21:52.922Z,100.00
2023-05-03T03:24:21.763Z,100.00
2023-05-03T03:26:50.723Z,100.00
2023-05-03T03:29:19.198Z,100.00
2023-05-03T03:31:47.685Z,100.00
2023-05-03T03:34:16.217Z,100.00
2023-05-03T03:36:45.212Z,100.00
2023-05-03T03:39:15.060Z,100.00
2023-05-03T03:41:44.435Z,100.00
2023-05-03T03:44:12.856Z,100.00
2023-05-03T03:46:41.302Z,100.00
2023-05-03T03:49:10.339Z,100.00
2023-05-03T03:51:38.870Z,100.00
2023-05-03T03:54:07.407Z,100.00
2023-05-03T03:56:37.985Z,100.00
2023-05-03T03:59:08.173Z,100.00
2023-05-03T04:01:37.178Z,100.00
2023-05-03T04:04:06.658Z,100.00
2023-05-03T04:06:35.276Z,100.00
2023-05-03T04:09:03.758Z,100.00
2023-05-03T04:11:32.165Z,100.00
2023-05-03T04:14:02.818Z,100.00
2023-05-03T04:16:31.314Z,100.00
2023-05-03T04:19:00.323Z,100.00
2023-05-03T04:21:28.922Z,100.00
2023-05-03T04:23:58.335Z,100.00
2023-05-03T04:26:31.237Z,100.00
2023-05-03T04:29:04.001Z,100.00
2023-05-03T04:31:32.576Z,100.00
2023-05-03T04:34:01.671Z,100.00
2023-05-03T04:36:31.396Z,100.00
2023-05-03T04:39:00.407Z,100.00
2023-05-03T04:41:29.873Z,100.00
2023-05-03T04:43:58.323Z,100.00
2023-05-03T04:46:29.261Z,100.00
2023-05-03T04:48:57.743Z,100.00
2023-05-03T04:51:28.327Z,100.00
2023-05-03T04:53:57.169Z,100.00
2023-05-03T04:56:26.846Z,100.00
2023-05-03T04:58:55.733Z,100.00
2023-05-03T05:01:28.101Z,100.00
2023-05-03T05:03:58.235Z,100.00
2023-05-03T05:06:27.377Z,100.00
2023-05-03T05:08:56.974Z,100.00
2023-05-03T05:11:27.426Z,100.00
2023-05-03T05:13:56.590Z,100.00
2023-05-03T05:16:25.742Z,100.00
2023-05-03T05:18:57.571Z,100.00
2023-05-03T05:21:27.023Z,100.00
2023-05-03T05:23:55.482Z,100.00
2023-05-03T05:26:24.004Z,100.00
2023-05-03T05:28:53.095Z,100.00
2023-05-03T05:31:21.945Z,100.00
2023-05-03T05:33:50.428Z,100.00
2023-05-03T05:36:20.712Z,100.00
2023-05-03T05:38:49.230Z,100.00
2023-05-03T05:41:17.669Z,100.00
2023-05-03T05:43:46.262Z,100.00
2023-05-03T05:46:14.803Z,100.00
2023-05-03T05:48:43.652Z,100.00
2023-05-03T05:51:12.150Z,100.00
2023-05-03T05:53:41.965Z,100.00
2023-05-03T05:56:12.102Z,100.00
2023-05-03T05:58:41.090Z,100.00
2023-05-03T06:01:10.743Z,100.00
2023-05-03T06:03:39.336Z,100.00
2023-05-03T06:06:08.132Z,100.00
2023-05-03T06:08:36.711Z,100.00
2023-05-03T06:11:07.237Z,100.00
2023-05-03T06:13:38.740Z,100.00
2023-05-03T06:16:08.246Z,100.00
2023-05-03T06:18:36.700Z,100.00
2023-05-03T06:21:06.257Z,100.00
2023-05-03T06:23:35.388Z,100.00
2023-05-03T06:26:05.495Z,100.00
2023-05-03T06:28:34.156Z,100.00
2023-05-03T06:31:02.711Z,100.00
2023-05-03T06:33:31.272Z,100.00
2023-05-03T06:35:59.701Z,100.00
2023-05-03T06:38:28.754Z,100.00
2023-05-03T06:40:57.680Z,100.00
2023-05-03T06:43:27.571Z,100.00
2023-05-03T06:45:56.199Z,100.00
2023-05-03T06:48:25.336Z,100.00
2023-05-03T06:50:56.567Z,100.00
2023-05-03T06:53:25.892Z,100.00
2023-05-03T06:55:54.804Z,100.00
2023-05-03T06:58:23.515Z,100.00
2023-05-03T07:00:55.267Z,100.00
2023-05-03T07:03:25.020Z,100.00
2023-05-03T07:05:53.801Z,100.00
2023-05-03T07:08:23.005Z,100.00
2023-05-03T07:10:51.442Z,100.00
2023-05-03T07:13:19.962Z,100.00
2023-05-03T07:15:48.467Z,100.00
2023-05-03T07:18:19.734Z,100.00
2023-05-03T07:20:48.949Z,100.00
2023-05-03T07:23:18.009Z,100.00
2023-05-03T07:25:47.922Z,100.00
2023-05-03T07:28:18.508Z,100.00
2023-05-03T07:30:47.571Z,100.00
2023-05-03T07:33:16.672Z,100.00
2023-05-03T07:35:49.258Z,100.00
2023-05-03T07:38:17.946Z,100.00
2023-05-03T07:40:46.924Z,100.00
2023-05-03T07:43:16.773Z,100.00
2023-05-03T07:45:45.847Z,100.00
2023-05-03T07:48:14.896Z,100.00
2023-05-03T07:50:44.394Z,100.00
2023-05-03T07:53:15.627Z,100.00
2023-05-03T07:55:44.587Z,100.00
2023-05-03T07:58:13.592Z,100.00
2023-05-03T08:00:42.728Z,100.00
2023-05-03T08:03:11.362Z,100.00
2023-05-03T08:05:39.997Z,100.00
2023-05-03T08:08:10.522Z,100.00
2023-05-03T08:10:40.936Z,100.00
2023-05-03T08:13:09.603Z,100.00
2023-05-03T08:15:39.240Z,100.00
2023-05-03T08:18:08.477Z,100.00
2023-05-03T08:20:37.856Z,100.00
2023-05-03T08:23:07.393Z,100.00
2023-05-03T08:25:37.268Z,100.00
2023-05-03T08:28:08.452Z,100.00
2023-05-03T08:30:39.459Z,100.00
2023-05-03T08:33:09.965Z,100.00
2023-05-03T08:35:38.488Z,100.00
2023-05-03T08:38:07.526Z,100.00
2023-05-03T08:40:37.514Z,100.00
2023-05-03T08:43:11.181Z,100.00
2023-05-03T08:45:39.667Z,100.00
2023-05-03T08:48:08.782Z,100.00
2023-05-03T08:50:42.917Z,100.00
2023-05-03T08:53:11.936Z,100.00
2023-05-03T08:55:40.643Z,100.00
2023-05-03T08:58:13.197Z,100.00
2023-05-03T09:00:45.215Z,100.00
2023-05-03T09:03:14.420Z,100.00
2023-05-03T09:05:44.418Z,100.00
2023-05-03T09:08:14.701Z,100.00
2023-05-03T09:10:44.110Z,100.00
2023-05-03T09:13:13.937Z,100.00
2023-05-03T09:15:44.246Z,100.00
2023-05-03T09:18:18.062Z,100.00
2023-05-03T09:20:53.069Z,100.00
2023-05-03T09:23:31.971Z,100.00
2023-05-03T09:26:01.171Z,100.00
2023-05-03T09:28:30.980Z,100.00
2023-05-03T09:31:10.754Z,100.00
2023-05-03T09:33:40.534Z,100.00
2023-05-03T09:36:11.054Z,100.00
2023-05-03T09:38:39.535Z,100.00
2023-05-03T09:41:11.201Z,100.00
2023-05-03T09:43:51.361Z,100.00
2023-05-03T09:46:20.702Z,100.00
2023-05-03T09:48:50.322Z,100.00
2023-05-03T09:51:19.523Z,100.00
2023-05-03T09:53:49.746Z,100.00
2023-05-03T09:56:20.943Z,100.00
2023-05-03T09:58:50.799Z,100.00
2023-05-03T10:01:20.862Z,100.00
2023-05-03T10:03:51.492Z,97.93
2023-05-03T10:06:27.198Z,97.23
2023-05-03T10:09:05.836Z,96.65
2023-05-03T10:11:37.449Z,96.96
2023-05-03T10:14:08.287Z,97.67
2023-05-03T10:16:42.011Z,95.92
2023-05-03T10:19:16.247Z,95.10
2023-05-03T10:21:57.811Z,95.40
2023-05-03T10:24:26.403Z,94.03
2023-05-03T10:26:57.482Z,93.41
2023-05-03T10:29:52.032Z,93.40
2023-05-03T10:32:43.224Z,92.64
2023-05-03T10:35:16.594Z,91.86
2023-05-03T10:37:46.009Z,91.21
2023-05-03T10:40:17.979Z,90.15
2023-05-03T10:42:53.212Z,89.25
2023-05-03T10:45:26.327Z,87.69
2023-05-03T10:48:20.820Z,87.41
2023-05-03T10:50:50.840Z,87.69
2023-05-03T10:53:40.085Z,86.04
2023-05-03T10:56:11.373Z,85.45
2023-05-03T10:58:44.376Z,85.68
2023-05-03T11:01:17.180Z,84.31
2023-05-03T11:03:55.595Z,81.84
2023-05-03T11:06:34.997Z,82.19
2023-05-03T11:09:06.577Z,83.78
2023-05-03T11:11:39.841Z,83.24
2023-05-03T11:14:08.974Z,81.42
2023-05-03T11:16:47.413Z,80.03
2023-05-03T11:19:16.773Z,78.95
2023-05-03T11:21:48.474Z,79.35
2023-05-03T11:24:17.897Z,79.42
2023-05-03T11:26:46.378Z,77.55
2023-05-03T11:29:17.337Z,76.63
2023-05-03T11:31:47.631Z,75.97
2023-05-03T11:34:18.857Z,74.83
2023-05-03T11:36:47.274Z,74.32
2023-05-03T11:39:18.728Z,75.05
2023-05-03T11:42:04.411Z,76.11
2023-05-03T11:44:34.105Z,75.92
2023-05-03T11:47:04.602Z,75.41
2023-05-03T11:49:33.765Z,73.08
2023-05-03T11:52:02.710Z,70.69
2023-05-03T11:54:32.053Z,70.73
2023-05-03T11:57:02.042Z,71.87
2023-05-03T11:59:39.940Z,69.39
2023-05-03T12:02:14.045Z,69.14
2023-05-03T12:04:45.827Z,69.93
2023-05-03T12:07:18.819Z,71.80
2023-05-03T12:10:01.067Z,67.54
2023-05-03T12:12:40.668Z,67.22
2023-05-03T12:15:14.549Z,65.39
2023-05-03T12:17:48.854Z,64.44
2023-05-03T12:22:57.740Z,63.28
2023-05-03T12:25:33.857Z,62.55
2023-05-03T12:30:40.033Z,58.08
2023-05-03T12:33:11.130Z,56.58
2023-05-03T12:35:41.279Z,56.88
2023-05-03T12:38:10.697Z,59.95
2023-05-03T12:40:41.012Z,62.14
2023-05-03T12:43:09.724Z,60.08
2023-05-03T12:45:40.832Z,55.93
2023-05-03T12:48:11.384Z,58.80
2023-05-03T12:50:42.023Z,57.96
2023-05-03T12:53:17.078Z,56.97
2023-05-03T12:55:51.456Z,57.10
2023-05-03T13:03:32.558Z,55.82
2023-05-03T13:06:12.393Z,55.63
2023-05-03T13:11:13.949Z,52.87
2023-05-03T13:13:42.916Z,54.25
2023-05-03T13:16:11.590Z,54.00
2023-05-03T13:18:43.231Z,52.36
2023-05-03T13:21:13.179Z,51.90
2023-05-03T13:23:42.116Z,49.94
2023-05-03T13:26:11.032Z,49.56
2023-05-03T13:28:41.738Z,48.13
2023-05-03T13:31:12.267Z,47.77
2023-05-03T13:33:42.617Z,48.62
2023-05-03T13:36:11.230Z,48.04
2023-05-03T13:38:42.092Z,49.42
2023-05-03T13:41:10.641Z,48.96
2023-05-03T13:43:42.074Z,48.24
2023-05-03T13:46:11.363Z,47.68
2023-05-03T13:48:42.716Z,49.48
2023-05-03T13:51:12.778Z,47.27
2023-05-03T13:53:41.883Z,45.35
2023-05-03T13:56:10.288Z,44.04
2023-05-03T13:58:40.326Z,44.33
2023-05-03T14:01:09.544Z,43.21
2023-05-03T14:03:38.081Z,41.34
2023-05-03T14:06:08.952Z,41.24
2023-05-03T14:08:37.586Z,40.29
2023-05-03T14:11:06.574Z,41.36
2023-05-03T14:13:47.553Z,41.71
2023-05-03T14:16:39.355Z,42.86
2023-05-03T14:19:11.988Z,43.16
2023-05-03T14:21:45.121Z,42.06
2023-05-03T14:24:14.142Z,41.59
2023-05-03T14:26:43.263Z,40.56
2023-05-03T14:29:11.660Z,40.20
2023-05-03T14:31:40.705Z,40.13
2023-05-03T14:34:09.210Z,40.35
2023-05-03T14:36:39.684Z,37.65
2023-05-03T14:39:10.029Z,37.34
2023-05-03T14:41:38.880Z,37.45
2023-05-03T14:44:08.893Z,36.32
2023-05-03T14:46:37.358Z,37.04
2023-05-03T14:49:05.964Z,38.19
2023-05-03T14:51:35.086Z,38.44
2023-05-03T14:54:03.737Z,37.43
2023-05-03T14:56:33.516Z,36.83
2023-05-03T14:59:02.838Z,37.68
2023-05-03T15:01:31.328Z,37.56
2023-05-03T15:03:59.912Z,36.42
2023-05-03T15:06:31.622Z,36.46
2023-05-03T15:09:01.162Z,37.27
2023-05-03T15:11:29.535Z,37.70
2023-05-03T15:13:59.727Z,38.35
2023-05-03T15:16:28.300Z,38.12
2023-05-03T15:18:56.858Z,36.92
2023-05-03T15:21:25.356Z,36.42
2023-05-03T15:23:54.404Z,34.36
2023-05-03T15:26:24.471Z,33.69
2023-05-03T15:28:53.964Z,33.08
2023-05-03T15:31:23.807Z,35.61
2023-05-03T15:33:52.221Z,35.76
2023-05-03T15:36:20.654Z,35.89
2023-05-03T15:38:50.484Z,35.24
2023-05-03T15:41:18.959Z,35.14
2023-05-03T15:43:47.677Z,36.06
2023-05-03T15:46:16.354Z,36.28
2023-05-03T15:48:47.657Z,35.75
2023-05-03T15:51:19.352Z,36.49
2023-05-03T15:53:48.308Z,38.23
2023-05-03T15:56:17.239Z,38.61
2023-05-03T15:58:47.799Z,38.23
2023-05-03T16:01:17.259Z,38.05
2023-05-03T16:03:48.046Z,35.83
2023-05-03T16:06:18.922Z,36.84
2023-05-03T16:08:48.139Z,37.70
2023-05-03T16:11:16.535Z,38.41
2023-05-03T16:13:45.109Z,38.39
2023-05-03T16:16:14.192Z,38.77
2023-05-03T16:18:42.700Z,38.62
2023-05-03T16:21:12.595Z,38.85
2023-05-03T16:23:41.114Z,39.46
2023-05-03T16:26:14.545Z,39.79
2023-05-03T16:28:43.083Z,39.63
2023-05-03T16:31:11.503Z,39.07
2023-05-03T16:33:39.947Z,38.58
2023-05-03T16:36:09.587Z,38.44
2023-05-03T16:38:39.404Z,38.67
2023-05-03T16:41:07.780Z,38.97
2023-05-03T16:43:36.286Z,39.50
2023-05-03T16:46:05.183Z,39.52
2023-05-03T16:48:35.031Z,40.17
2023-05-03T16:51:03.661Z,40.94
2023-05-03T16:53:32.584Z,41.37
2023-05-03T16:56:02.562Z,40.99
2023-05-03T16:58:30.957Z,40.39
2023-05-03T17:00:59.372Z,39.05
2023-05-03T17:03:27.920Z,39.69
2023-05-03T17:05:56.453Z,40.08
2023-05-03T17:08:26.874Z,39.55
2023-05-03T17:10:55.423Z,39.97
2023-05-03T17:13:25.865Z,40.92
2023-05-03T17:15:54.302Z,41.73
2023-05-03T17:18:22.675Z,41.41
2023-05-03T17:20:52.797Z,41.96
2023-05-03T17:23:21.733Z,42.54
2023-05-03T17:25:50.204Z,41.33
2023-05-03T17:28:18.559Z,41.62
2023-05-03T17:30:48.354Z,41.55
2023-05-03T17:33:17.453Z,42.19
2023-05-03T17:35:45.925Z,42.28
2023-05-03T17:38:14.398Z,41.97
2023-05-03T17:40:44.394Z,42.76
2023-05-03T17:43:13.774Z,43.53
2023-05-03T17:45:43.605Z,43.08
2023-05-03T17:48:13.615Z,42.42
2023-05-03T17:50:43.411Z,42.57
2023-05-03T17:53:12.298Z,43.11
2023-05-03T17:55:40.902Z,44.50
2023-05-03T17:58:10.188Z,44.69
2023-05-03T18:00:38.805Z,44.23
2023-05-03T18:03:08.192Z,45.58
2023-05-03T18:05:38.156Z,47.43
2023-05-03T18:08:07.181Z,48.21
2023-05-03T18:10:36.080Z,48.10
2023-05-03T18:13:05.319Z,49.11
2023-05-03T18:15:34.603Z,48.04
2023-05-03T18:18:03.040Z,47.01
2023-05-03T18:20:32.097Z,48.26
2023-05-03T18:23:01.995Z,49.49
2023-05-03T18:25:30.587Z,51.01
2023-05-03T18:27:59.216Z,51.56
2023-05-03T18:30:29.241Z,52.33
2023-05-03T18:32:57.928Z,53.75
2023-05-03T18:35:27.441Z,54.79
2023-05-03T18:37:56.896Z,55.23
2023-05-03T18:40:26.877Z,56.46
2023-05-03T18:42:55.267Z,57.35
2023-05-03T18:45:24.398Z,57.99
2023-05-03T18:47:53.354Z,58.90
2023-05-03T18:50:21.877Z,60.19
2023-05-03T18:52:50.911Z,60.75
2023-05-03T18:55:19.451Z,61.37
2023-05-03T18:57:51.680Z,62.17
2023-05-03T19:00:20.310Z,63.32
2023-05-03T19:02:49.250Z,63.14
2023-05-03T19:05:17.944Z,63.39
2023-05-03T19:07:48.910Z,63.84
2023-05-03T19:10:19.878Z,64.04
2023-05-03T19:12:49.812Z,64.78
2023-05-03T19:15:18.247Z,64.68
2023-05-03T19:17:47.456Z,65.12
2023-05-03T19:20:17.415Z,65.14
2023-05-03T19:22:46.316Z,65.10
2023-05-03T19:25:15.084Z,65.88
2023-05-03T19:27:43.517Z,66.42
2023-05-03T19:30:14.636Z,67.03
2023-05-03T19:32:43.142Z,67.58
2023-05-03T19:35:12.162Z,67.09
2023-05-03T19:37:40.656Z,67.17
2023-05-03T19:40:11.387Z,67.86
2023-05-03T19:42:39.865Z,67.87
2023-05-03T19:45:09.980Z,68.48
2023-05-03T19:47:40.244Z,70.09
2023-05-03T19:50:09.592Z,70.63
2023-05-03T19:52:38.035Z,71.53
2023-05-03T19:55:08.462Z,72.03
2023-05-03T19:57:37.211Z,72.54
2023-05-03T20:00:07.769Z,72.45
2023-05-03T20:02:38.102Z,72.96
2023-05-03T20:05:09.275Z,74.30
2023-05-03T20:07:37.735Z,74.97
2023-05-03T20:10:07.396Z,76.28
2023-05-03T20:12:35.896Z,76.67
2023-05-03T20:15:04.738Z,77.00
2023-05-03T20:17:33.625Z,77.01
2023-05-03T20:20:12.209Z,77.82
2023-05-03T20:22:40.745Z,78.57
2023-05-03T20:25:10.548Z,79.60
2023-05-03T20:27:39.483Z,79.85
2023-05-03T20:30:09.876Z,81.06
2023-05-03T20:32:39.352Z,81.23
2023-05-03T20:35:11.575Z,81.54
2023-05-03T20:37:40.376Z,82.20
2023-05-03T20:40:12.346Z,82.65
2023-05-03T20:42:40.833Z,82.57
2023-05-03T20:45:10.573Z,83.10
2023-05-03T20:47:39.622Z,83.91
2023-05-03T20:50:10.682Z,83.84
2023-05-03T20:52:39.764Z,84.04
2023-05-03T20:55:09.054Z,84.63
2023-05-03T20:57:42.268Z,84.95
2023-05-03T21:00:12.819Z,85.16
2023-05-03T21:02:41.389Z,85.64
2023-05-03T21:05:12.244Z,85.54
2023-05-03T21:07:40.883Z,86.10
2023-05-03T21:10:11.208Z,86.76
2023-05-03T21:12:39.671Z,87.44
2023-05-03T21:15:09.978Z,87.50
2023-05-03T21:17:38.472Z,87.82
2023-05-03T21:20:09.054Z,88.26
2023-05-03T21:22:38.861Z,88.54
2023-05-03T21:25:09.770Z,89.11
2023-05-03T21:27:38.786Z,89.01
2023-05-03T21:30:09.265Z,89.49
2023-05-03T21:32:37.776Z,89.95
2023-05-03T21:35:07.597Z,89.97
2023-05-03T21:37:36.639Z,90.96
2023-05-03T21:40:08.701Z,91.29
2023-05-03T21:42:37.331Z,91.74
2023-05-03T21:45:07.080Z,91.90
2023-05-03T21:47:35.606Z,91.94
2023-05-03T21:50:07.507Z,91.72
2023-05-03T21:52:38.462Z,92.55
2023-05-03T21:55:09.993Z,92.90
2023-05-03T21:57:39.080Z,93.46
2023-05-03T22:00:14.244Z,94.06
2023-05-03T22:02:43.165Z,94.72
2023-05-03T22:05:13.183Z,94.84
2023-05-03T22:07:42.850Z,95.33
2023-05-03T22:10:12.858Z,95.39
2023-05-03T22:12:41.366Z,95.57
2023-05-03T22:15:12.169Z,95.72
2023-05-03T22:17:41.207Z,96.26
2023-05-03T22:20:12.915Z,96.10
2023-05-03T22:22:41.451Z,96.76
2023-05-03T22:25:22.838Z,96.86
2023-05-03T22:27:51.858Z,97.49
2023-05-03T22:30:21.713Z,98.58
2023-05-03T22:32:50.901Z,98.93
2023-05-03T22:35:19.566Z,99.26
2023-05-03T22:37:48.503Z,99.79
2023-05-03T22:40:18.386Z,100.00
2023-05-03T22:42:46.803Z,100.00
2023-05-03T22:45:15.404Z,100.00
2023-05-03T22:47:44.308Z,100.00
2023-05-03T22:50:13.382Z,100.00
2023-05-03T22:52:41.925Z,100.00
2023-05-03T22:55:12.526Z,100.00
2023-05-03T22:57:43.140Z,100.00
2023-05-03T23:00:13.090Z,100.00
2023-05-03T23:02:44.466Z,100.00
2023-05-03T23:05:13.040Z,100.00
2023-05-03T23:07:43.110Z,100.00
2023-05-03T23:10:12.470Z,100.00
2023-05-03T23:12:42.345Z,100.00
2023-05-03T23:15:12.755Z,100.00
2023-05-03T23:17:42.316Z,100.00
2023-05-03T23:20:15.313Z,100.00
2023-05-03T23:22:44.547Z,100.00
2023-05-03T23:25:13.162Z,100.00
2023-05-03T23:27:43.272Z,100.00
2023-05-03T23:30:13.591Z,100.00
2023-05-03T23:32:42.768Z,100.00
2023-05-03T23:35:11.836Z,100.00
2023-05-03T23:37:40.442Z,100.00
2023-05-03T23:40:12.989Z,100.00
2023-05-03T23:42:43.597Z,100.00
2023-05-03T23:45:13.330Z,100.00
2023-05-03T23:47:44.019Z,100.00
2023-05-03T23:50:12.936Z,100.00
2023-05-03T23:52:43.128Z,100.00
2023-05-03T23:55:12.481Z,100.00
2023-05-03T23:57:42.573Z,100.00
